Time;durP1;ratioP1;P1;durP2;ratioP2;P2;SDS_P1;SDS_P2;PMS_P1;PMS_P2;Temp;Humidity;BMP_temperature;BMP_pressure;BME280_temperature;BME280_humidity;BME280_pressure;Samples;Min_cycle;Max_cycle;Signal;HPM_P1;HPM_P2
2022/05/28 00:00:28;;;;;;;5.32;1.40;;;;;;;8.10;89.71;101006.38;4972713;28;20177;-48
2022/05/28 00:02:54;;;;;;;4.88;1.35;;;;;;;8.09;89.79;101003.75;4972720;28;20260;-47
2022/05/28 00:05:19;;;;;;;9.55;1.70;;;;;;;7.95;90.83;101018.31;4972554;28;20615;-45
2022/05/28 00:07:45;;;;;;;11.10;1.60;;;;;;;7.94;92.02;101015.69;4972760;28;20178;-46
2022/05/28 00:10:13;;;;;;;8.55;1.80;;;;;;;7.88;93.10;101024.72;4973088;28;20228;-47
2022/05/28 00:12:39;;;;;;;8.52;1.90;;;;;;;7.83;94.31;101019.50;4972439;28;20225;-45
2022/05/28 00:15:05;;;;;;;5.20;1.70;;;;;;;7.88;95.59;101022.03;4972376;28;20174;-48
2022/05/28 00:17:31;;;;;;;11.77;2.35;;;;;;;7.78;96.49;101008.06;4972696;28;20213;-46
2022/05/28 00:19:56;;;;;;;16.55;2.53;;;;;;;7.62;97.33;101009.31;4972616;28;20189;-43
2022/05/28 00:22:21;;;;;;;11.70;2.10;;;;;;;7.58;98.47;101011.16;4972637;28;20228;-43
2022/05/28 00:24:47;;;;;;;6.75;1.98;;;;;;;7.73;98.25;101011.75;4971905;28;20186;-44
2022/05/28 00:27:12;;;;;;;8.93;2.15;;;;;;;7.68;99.09;101006.53;4972831;28;20302;-44
2022/05/28 00:29:38;;;;;;;9.43;1.70;;;;;;;7.65;99.11;101009.25;4972167;28;20170;-43
2022/05/28 00:32:04;;;;;;;6.05;1.67;;;;;;;7.65;99.58;101011.91;4972229;28;20206;-42
2022/05/28 00:34:30;;;;;;;8.63;1.77;;;;;;;7.68;99.88;101003.84;4972125;28;20197;-43
2022/05/28 00:36:55;;;;;;;11.75;2.30;;;;;;;7.80;99.59;101006.22;4971792;28;20181;-45
2022/05/28 00:39:21;;;;;;;8.70;1.90;;;;;;;7.64;100.00;101004.84;4972570;28;20404;-42
2022/05/28 00:41:46;;;;;;;7.45;2.17;;;;;;;7.64;100.00;101000.38;4972427;28;20189;-43
2022/05/28 00:44:12;;;;;;;6.72;1.58;;;;;;;7.66;100.00;101003.00;4971654;28;20170;-44
2022/05/28 00:46:37;;;;;;;9.75;1.60;;;;;;;7.60;100.00;100990.69;4972064;28;20206;-42
2022/05/28 00:49:09;;;;;;;6.88;1.42;;;;;;;7.52;100.00;100992.69;4972142;28;20556;-42
2022/05/28 00:51:41;;;;;;;7.32;1.75;;;;;;;7.41;100.00;100994.69;4972331;28;20525;-42
2022/05/28 00:54:09;;;;;;;6.20;1.40;;;;;;;7.49;100.00;100991.84;4970564;28;20186;-42
2022/05/28 00:56:36;;;;;;;7.15;1.85;;;;;;;7.28;100.00;100983.44;4970608;28;20166;-43
2022/05/28 00:59:02;;;;;;;12.57;1.85;;;;;;;7.35;100.00;100987.72;4972160;28;20171;-42
2022/05/28 01:01:29;;;;;;;8.05;1.45;;;;;;;7.22;100.00;100991.56;4970597;28;20204;-41
2022/05/28 01:04:00;;;;;;;5.57;1.35;;;;;;;7.27;100.00;100981.69;4971634;28;20198;-42
2022/05/28 01:06:36;;;;;;;11.23;2.05;;;;;;;7.24;100.00;100973.75;4971918;28;20264;-42
2022/05/28 01:09:21;;;;;;;6.38;1.63;;;;;;;7.27;100.00;100992.34;4971819;28;20178;-42
2022/05/28 01:11:59;;;;;;;6.22;1.60;;;;;;;7.25;100.00;100971.97;4971709;28;20213;-43
2022/05/28 01:14:32;;;;;;;9.93;2.00;;;;;;;7.18;100.00;100982.75;4964975;28;20253;-43
2022/05/28 01:17:05;;;;;;;11.95;2.38;;;;;;;7.13;100.00;100971.31;4960523;28;20788;-43
2022/05/28 01:19:58;;;;;;;7.38;1.52;;;;;;;7.05;100.00;100975.94;4960119;28;20239;-43
2022/05/28 01:22:27;;;;;;;8.32;1.80;;;;;;;7.04;100.00;100965.31;4963579;28;20213;-42
2022/05/28 01:25:14;;;;;;;8.18;1.83;;;;;;;7.09;100.00;100966.09;4970937;28;20573;-43
2022/05/28 01:27:46;;;;;;;7.57;1.55;;;;;;;7.03;100.00;100961.78;4971482;28;20273;-43
2022/05/28 01:30:15;;;;;;;9.85;1.60;;;;;;;7.17;100.00;100964.13;4971632;28;20596;-39
2022/05/28 01:32:44;;;;;;;5.97;1.42;;;;;;;7.21;100.00;100965.81;4970109;28;20202;-42
2022/05/28 01:35:13;;;;;;;7.80;1.92;;;;;;;7.05;100.00;100961.75;4971140;28;20178;-42
2022/05/28 01:37:39;;;;;;;13.10;1.55;;;;;;;7.06;100.00;100959.03;4970999;28;20189;-43
2022/05/28 01:40:07;;;;;;;6.18;1.70;;;;;;;6.97;100.00;100968.09;4971043;28;20584;-43
2022/05/28 01:42:36;;;;;;;10.57;2.20;;;;;;;6.96;100.00;100960.16;4971396;28;20260;-43
2022/05/28 01:45:04;;;;;;;11.68;1.77;;;;;;;6.88;100.00;100954.97;4970595;28;20190;-43
2022/05/28 01:47:31;;;;;;;9.30;1.95;;;;;;;6.88;100.00;100965.63;4971187;28;20190;-43
2022/05/28 01:50:00;;;;;;;7.32;1.67;;;;;;;6.96;100.00;100963.69;4970070;28;20201;-43
2022/05/28 01:52:27;;;;;;;7.32;1.73;;;;;;;6.95;100.00;100961.06;4970024;28;20237;-43
2022/05/28 01:54:53;;;;;;;11.32;2.05;;;;;;;6.87;100.00;100950.56;4970498;28;20233;-43
2022/05/28 01:57:19;;;;;;;10.40;2.42;;;;;;;6.88;100.00;100959.44;4971256;28;20720;-43
2022/05/28 01:59:44;;;;;;;11.95;2.00;;;;;;;6.87;100.00;100961.22;4971370;28;20214;-42
2022/05/28 02:02:15;;;;;;;8.30;1.90;;;;;;;6.76;100.00;100948.13;4970446;28;20284;-43
2022/05/28 02:04:42;;;;;;;9.10;2.40;;;;;;;6.86;100.00;100954.13;4970722;28;20190;-42
2022/05/28 02:07:07;;;;;;;13.70;2.20;;;;;;;6.87;100.00;100947.91;4970803;28;20202;-42
2022/05/28 02:09:55;;;;;;;11.88;1.90;;;;;;;6.83;100.00;100946.22;4970474;28;20189;-41
2022/05/28 02:12:30;;;;;;;9.15;1.95;;;;;;;6.88;100.00;100946.97;4971057;28;20197;-41
2022/05/28 02:15:22;;;;;;;11.50;2.30;;;;;;;6.86;100.00;100951.47;4970461;28;20652;-43
2022/05/28 02:17:52;;;;;;;16.88;2.10;;;;;;;6.89;100.00;100954.09;4941173;28;20677;-41
2022/05/28 02:20:27;;;;;;;12.25;2.30;;;;;;;7.01;100.00;100948.47;4970716;28;20273;-43
2022/05/28 02:23:35;;;;;;;7.90;1.90;;;;;;;6.97;100.00;100948.56;4970996;28;20601;-44
2022/05/28 02:26:14;;;;;;;9.45;2.20;;;;;;;6.99;100.00;100955.63;4891952;29;20226;-43
2022/05/28 02:28:42;;;;;;;12.75;2.17;;;;;;;7.09;100.00;100940.34;4965876;28;20668;-41
2022/05/28 02:31:15;;;;;;;15.13;2.30;;;;;;;7.07;100.00;100946.59;4969748;28;20203;-41
2022/05/28 02:33:41;;;;;;;13.93;2.00;;;;;;;6.96;100.00;100949.50;4970431;28;20704;-43
2022/05/28 02:36:07;;;;;;;12.68;2.10;;;;;;;7.06;100.00;100945.72;4970839;28;20178;-43
2022/05/28 02:38:33;;;;;;;11.25;2.53;;;;;;;7.09;100.00;100950.13;4970680;28;20327;-42
2022/05/28 02:40:59;;;;;;;10.90;2.35;;;;;;;7.17;100.00;100949.03;4970925;28;20182;-43
2022/05/28 02:43:25;;;;;;;9.82;1.95;;;;;;;7.18;100.00;100949.91;4968938;28;20569;-42
2022/05/28 02:45:51;;;;;;;10.00;2.58;;;;;;;7.19;100.00;100946.31;4969575;28;20210;-42
2022/05/28 02:48:16;;;;;;;9.20;2.10;;;;;;;7.17;100.00;100945.47;4971033;28;20185;-44
2022/05/28 02:50:42;;;;;;;14.98;2.85;;;;;;;7.09;100.00;100947.47;4970564;28;20186;-41
2022/05/28 02:53:07;;;;;;;16.80;2.63;;;;;;;7.12;100.00;100958.03;4969849;28;20206;-43
2022/05/28 02:55:33;;;;;;;14.95;2.85;;;;;;;7.18;100.00;100948.13;4970602;28;20185;-44
2022/05/28 02:57:59;;;;;;;8.88;2.30;;;;;;;7.05;100.00;100956.41;4970347;28;20193;-43
2022/05/28 03:00:24;;;;;;;13.23;2.08;;;;;;;7.07;100.00;100941.28;4972217;28;20166;-43
2022/05/28 03:02:50;;;;;;;8.82;2.00;;;;;;;7.09;100.00;100944.78;4973504;28;20614;-42
2022/05/28 03:05:18;;;;;;;8.27;2.10;;;;;;;7.18;100.00;100953.44;4973167;28;20540;-41
2022/05/28 03:07:44;;;;;;;9.38;2.63;;;;;;;7.16;100.00;100949.06;4973719;28;20193;-42
2022/05/28 03:10:11;;;;;;;10.15;2.22;;;;;;;7.15;100.00;100944.63;4973502;28;20170;-43
2022/05/28 03:12:37;;;;;;;17.73;2.97;;;;;;;7.22;100.00;100946.25;4973670;28;20237;-41
2022/05/28 03:15:03;;;;;;;9.35;2.10;;;;;;;7.30;100.00;100943.41;4966609;28;20193;-45
2022/05/28 03:17:28;;;;;;;11.10;2.95;;;;;;;7.19;100.00;100944.56;4966761;28;20254;-42
2022/05/28 03:19:54;;;;;;;11.50;2.78;;;;;;;7.23;100.00;100943.53;4954326;29;20189;-42
2022/05/28 03:22:19;;;;;;;16.15;2.25;;;;;;;7.29;100.00;100950.53;4953953;29;20202;-43
2022/05/28 03:24:44;;;;;;;9.85;2.25;;;;;;;7.36;100.00;100932.63;4955772;28;20186;-43
2022/05/28 03:27:10;;;;;;;10.65;2.10;;;;;;;7.43;100.00;100944.88;4973235;28;20589;-43
2022/05/28 03:29:35;;;;;;;11.32;2.30;;;;;;;7.47;100.00;100953.69;4970721;28;20182;-43
2022/05/28 03:32:01;;;;;;;11.32;1.95;;;;;;;7.43;100.00;100951.13;4963202;28;20197;-44
2022/05/28 03:34:26;;;;;;;6.78;2.00;;;;;;;7.46;100.00;100954.63;4972580;28;20185;-43
2022/05/28 03:36:51;;;;;;;13.40;2.22;;;;;;;7.44;100.00;100957.31;4972084;28;20174;-42
2022/05/28 03:39:17;;;;;;;12.57;2.03;;;;;;;7.48;100.00;100952.75;4973311;28;20253;-44
2022/05/28 03:41:43;;;;;;;11.50;2.60;;;;;;;7.52;100.00;100958.03;4972998;28;20537;-45
2022/05/28 03:44:11;;;;;;;10.20;2.08;;;;;;;7.67;99.98;100942.53;4972882;28;20189;-43
2022/05/28 03:46:37;;;;;;;9.18;2.28;;;;;;;7.59;99.54;100940.09;4973060;28;20228;-43
2022/05/28 03:49:27;;;;;;;12.82;2.17;;;;;;;7.57;99.18;100966.78;4973222;28;20237;-43
2022/05/28 03:51:54;;;;;;;7.43;2.15;;;;;;;7.61;98.90;100954.25;4972876;28;20280;-43
2022/05/28 03:54:19;;;;;;;12.25;2.38;;;;;;;7.60;98.69;100950.69;4972905;28;20771;-44
2022/05/28 03:56:47;;;;;;;11.40;2.78;;;;;;;7.69;98.30;100952.25;4973395;28;20257;-44
2022/05/28 03:59:12;;;;;;;12.05;2.20;;;;;;;7.61;98.26;100957.78;4972980;28;20170;-43
2022/05/28 04:01:38;;;;;;;5.93;2.20;;;;;;;7.67;98.26;100953.22;4973060;28;20795;-43
2022/05/28 04:04:04;;;;;;;10.77;2.08;;;;;;;7.63;98.12;100960.41;4972556;28;20273;-43
2022/05/28 04:06:30;;;;;;;14.88;2.70;;;;;;;7.59;98.59;100961.41;4972852;28;20214;-43
2022/05/28 04:08:56;;;;;;;10.13;2.75;;;;;;;7.64;98.15;100967.50;4973045;28;20633;-43
2022/05/28 04:11:22;;;;;;;12.05;2.60;;;;;;;7.61;97.34;100959.59;4972070;28;20178;-44
2022/05/28 04:13:47;;;;;;;8.63;2.35;;;;;;;7.67;97.64;100967.41;4972376;28;20210;-46
2022/05/28 04:16:14;;;;;;;15.43;3.20;;;;;;;7.71;97.34;100962.91;4972831;28;20668;-44
2022/05/28 04:18:40;;;;;;;12.18;2.72;;;;;;;7.77;96.93;100955.63;4972816;28;20204;-44
2022/05/28 04:21:06;;;;;;;12.25;2.47;;;;;;;7.82;96.16;100959.03;4972733;28;20273;-45
2022/05/28 04:23:32;;;;;;;12.68;2.38;;;;;;;7.83;95.97;100950.13;4972209;28;20206;-43
2022/05/28 04:25:58;;;;;;;8.60;2.30;;;;;;;7.84;96.07;100954.53;4972671;28;20206;-43
2022/05/28 04:28:23;;;;;;;9.30;2.15;;;;;;;8.02;95.82;100965.66;4972861;28;20265;-44
2022/05/28 04:30:49;;;;;;;10.40;1.92;;;;;;;8.05;95.71;100966.47;4972057;28;20189;-43
2022/05/28 04:33:14;;;;;;;7.65;2.10;;;;;;;8.15;95.37;100969.78;4972165;28;20737;-42
2022/05/28 04:35:40;;;;;;;12.80;2.75;;;;;;;8.17;94.44;100970.59;4972388;28;20709;-42
2022/05/28 04:38:05;;;;;;;8.20;1.98;;;;;;;8.17;94.36;100969.75;4972605;28;20182;-43
2022/05/28 04:40:30;;;;;;;14.30;2.97;;;;;;;8.10;94.67;100973.50;4972288;28;20704;-44
2022/05/28 04:42:56;;;;;;;8.00;2.25;;;;;;;8.19;94.46;100974.13;4971909;28;20211;-42
2022/05/28 04:45:21;;;;;;;13.07;2.20;;;;;;;8.06;94.73;100964.69;4986773;28;20208;-42
2022/05/28 04:47:47;;;;;;;11.70;2.35;;;;;;;8.16;94.78;100966.19;4972068;28;20178;-42
2022/05/28 04:50:12;;;;;;;12.13;2.70;;;;;;;8.27;94.86;100967.72;4971100;28;20193;-44
2022/05/28 04:52:38;;;;;;;12.65;2.53;;;;;;;8.36;94.12;100964.81;4972166;28;20198;-41
2022/05/28 04:55:07;;;;;;;8.32;3.10;;;;;;;8.44;93.61;100974.38;4971210;28;20214;-41
2022/05/28 04:57:33;;;;;;;12.02;2.38;;;;;;;8.45;93.22;100977.94;4972021;28;20183;-41
2022/05/28 04:59:58;;;;;;;8.60;3.00;;;;;;;8.54;92.92;100972.31;4971837;28;20236;-44
2022/05/28 05:02:24;;;;;;;8.95;2.50;;;;;;;8.68;92.43;100982.66;4971678;28;20209;-44
2022/05/28 05:04:55;;;;;;;12.30;2.70;;;;;;;8.78;91.15;100988.59;4971403;28;20174;-44
2022/05/28 05:07:20;;;;;;;5.47;1.75;;;;;;;9.04;89.78;100993.19;4971489;28;20206;-42
2022/05/28 05:09:45;;;;;;;12.60;2.08;;;;;;;9.17;88.90;100985.69;4971772;28;20265;-43
2022/05/28 05:12:11;;;;;;;10.80;2.05;;;;;;;9.22;87.91;100989.09;4971495;28;20580;-43
2022/05/28 05:14:36;;;;;;;6.63;2.35;;;;;;;9.27;87.45;100981.81;4971080;28;20192;-43
2022/05/28 05:17:02;;;;;;;14.90;2.53;;;;;;;9.25;86.81;101000.59;4971799;28;20631;-42
2022/05/28 05:19:27;;;;;;;11.30;2.08;;;;;;;9.21;86.60;100998.91;4971456;28;20174;-42
2022/05/28 05:21:56;;;;;;;11.85;2.38;;;;;;;9.35;86.84;101011.88;4971477;28;20209;-43
2022/05/28 05:24:23;;;;;;;11.80;2.90;;;;;;;9.42;86.92;101001.84;4969631;28;20672;-42
2022/05/28 05:26:48;;;;;;;13.60;2.40;;;;;;;9.49;85.74;100998.09;4971313;28;20198;-44
2022/05/28 05:29:14;;;;;;;13.07;2.72;;;;;;;9.54;85.31;100989.91;4971303;28;20174;-42
2022/05/28 05:31:40;;;;;;;14.55;2.58;;;;;;;9.55;85.65;101003.22;4971196;28;20186;-44
2022/05/28 05:34:06;;;;;;;11.90;2.55;;;;;;;9.55;86.14;101013.06;4970873;28;20186;-43
2022/05/28 05:36:32;;;;;;;13.65;2.13;;;;;;;9.62;85.83;100998.56;4970313;28;20704;-40
2022/05/28 05:38:57;;;;;;;10.82;2.38;;;;;;;9.67;85.70;101010.88;4971356;28;20182;-43
2022/05/28 05:41:23;;;;;;;19.80;3.00;;;;;;;9.73;85.05;101015.16;4971320;28;20232;-44
2022/05/28 05:43:48;;;;;;;13.38;3.10;;;;;;;9.83;84.56;101008.56;4970097;28;20200;-42
2022/05/28 05:46:14;;;;;;;21.00;3.10;;;;;;;9.84;84.12;101010.34;4971094;28;20213;-44
2022/05/28 05:48:39;;;;;;;12.25;2.90;;;;;;;10.11;83.69;101005.88;4966489;28;20272;-43
2022/05/28 05:51:14;;;;;;;13.65;2.65;;;;;;;10.07;82.86;100998.00;4971148;28;20637;-43
2022/05/28 05:53:40;;;;;;;17.40;2.85;;;;;;;10.03;83.00;101007.06;4970663;28;20260;-43
2022/05/28 05:56:07;;;;;;;12.45;2.95;;;;;;;10.19;83.34;101004.72;4970751;28;20265;-44
2022/05/28 05:58:34;;;;;;;19.38;3.33;;;;;;;10.27;82.41;101011.56;4971033;28;20256;-43
2022/05/28 06:01:02;;;;;;;11.65;2.60;;;;;;;10.45;81.65;101010.13;4970234;28;20186;-44
2022/05/28 06:03:28;;;;;;;18.77;3.50;;;;;;;10.61;80.00;101012.25;4970556;28;20224;-45
2022/05/28 06:06:01;;;;;;;18.02;3.33;;;;;;;10.57;79.65;101006.13;4970785;28;20278;-44
2022/05/28 06:08:27;;;;;;;11.93;2.85;;;;;;;10.87;79.05;101014.00;4970673;28;20546;-44
2022/05/28 06:10:53;;;;;;;12.00;2.55;;;;;;;11.01;77.59;101005.44;4970925;28;20424;-42
2022/05/28 06:13:18;;;;;;;20.83;4.05;;;;;;;10.95;77.76;101019.06;4969537;28;20198;-42
2022/05/28 06:15:45;;;;;;;11.60;3.15;;;;;;;10.95;76.99;101027.13;4970884;28;20278;-45
2022/05/28 06:18:13;;;;;;;16.00;3.80;;;;;;;11.01;76.41;101021.53;4971147;28;20192;-44
2022/05/28 06:20:38;;;;;;;18.63;3.15;;;;;;;10.89;76.33;101022.88;4969553;28;20182;-44
2022/05/28 06:23:03;;;;;;;10.95;3.28;;;;;;;11.32;76.67;101015.88;4970685;28;20231;-44
2022/05/28 06:25:29;;;;;;;15.10;2.75;;;;;;;11.57;74.65;101020.28;4970485;28;20249;-44
2022/05/28 06:27:54;;;;;;;13.15;3.05;;;;;;;11.27;73.74;101009.84;4969130;28;20170;-43
2022/05/28 06:30:20;;;;;;;18.30;3.00;;;;;;;11.60;73.58;101009.44;4968673;28;20202;-41
2022/05/28 06:32:45;;;;;;;14.90;3.10;;;;;;;11.53;73.87;101019.56;4970142;28;20680;-44
2022/05/28 06:35:11;;;;;;;14.52;3.33;;;;;;;11.38;73.78;101007.59;4972185;28;20220;-44
2022/05/28 06:37:37;;;;;;;14.63;2.88;;;;;;;11.27;73.60;101018.75;4973439;28;20170;-44
2022/05/28 06:40:03;;;;;;;17.95;3.25;;;;;;;11.08;74.07;101017.69;4974589;28;20178;-41
2022/05/28 06:42:29;;;;;;;15.77;3.28;;;;;;;11.59;73.79;101018.41;4973387;28;20322;-43
2022/05/28 06:44:55;;;;;;;13.07;2.90;;;;;;;11.84;73.13;100999.53;4972341;28;20218;-43
2022/05/28 06:47:21;;;;;;;14.38;3.00;;;;;;;12.12;71.04;101010.06;4973683;28;20229;-43
2022/05/28 06:51:01;;;;;;;15.18;2.40;;;;;;;12.13;70.42;101009.09;4974122;28;20189;-45
2022/05/28 06:52:32;;;;;;;13.18;3.35;;;;;;;12.03;70.82;101013.13;4972893;28;20525;-41
2022/05/28 06:54:58;;;;;;;15.25;3.33;;;;;;;12.30;71.75;101011.94;4972857;28;20268;-45
2022/05/28 06:57:23;;;;;;;14.80;2.63;;;;;;;12.23;70.21;101010.47;4954878;28;20535;-45
2022/05/28 06:59:48;;;;;;;12.40;2.85;;;;;;;12.65;70.84;101016.75;4953598;29;20679;-45
2022/05/28 07:02:14;;;;;;;12.77;3.03;;;;;;;12.69;69.19;101024.59;4953260;29;20218;-44
2022/05/28 07:04:39;;;;;;;9.30;2.85;;;;;;;12.32;68.46;101025.31;4954319;29;20661;-43
2022/05/28 07:07:05;;;;;;;12.95;3.17;;;;;;;11.95;69.61;101027.72;4954538;29;20260;-45
2022/05/28 07:09:31;;;;;;;17.35;3.00;;;;;;;11.93;70.41;101037.66;4953383;29;20179;-45
2022/05/28 07:11:56;;;;;;;14.30;2.83;;;;;;;11.73;70.56;101030.38;4954592;29;20175;-43
2022/05/28 07:14:22;;;;;;;13.75;2.80;;;;;;;11.73;70.28;101034.88;4964449;28;20196;-43
2022/05/28 07:16:47;;;;;;;15.27;3.17;;;;;;;11.67;71.87;101032.41;4965374;28;20182;-44
2022/05/28 07:19:13;;;;;;;18.25;2.92;;;;;;;11.60;72.86;101039.84;4973761;28;20163;-45
2022/05/28 07:21:38;;;;;;;15.57;3.35;;;;;;;12.30;72.37;101033.44;4973358;28;20614;-44
2022/05/28 07:24:04;;;;;;;13.05;2.95;;;;;;;12.12;71.63;101028.84;4973680;28;20167;-42
2022/05/28 07:26:30;;;;;;;12.50;2.42;;;;;;;12.51;70.56;101031.66;4973650;28;20249;-42
2022/05/28 07:28:55;;;;;;;17.00;3.20;;;;;;;12.74;70.23;101024.41;4973497;28;20266;-44
2022/05/28 07:31:21;;;;;;;13.10;2.72;;;;;;;13.07;68.67;101016.63;4973621;28;20210;-44
2022/05/28 07:33:47;;;;;;;11.85;2.30;;;;;;;12.69;68.63;101019.22;4971783;28;20627;-44
2022/05/28 07:36:16;;;;;;;13.27;3.08;;;;;;;12.66;70.44;101019.38;4972236;28;20653;-44
2022/05/28 07:38:42;;;;;;;15.70;3.08;;;;;;;12.30;70.26;101021.81;4988275;28;20547;-44
2022/05/28 07:41:10;;;;;;;20.60;2.88;;;;;;;11.88;71.77;101026.22;4954042;28;20182;-45
2022/05/28 07:43:36;;;;;;;13.52;2.85;;;;;;;11.69;73.14;101046.66;4958547;28;20591;-43
2022/05/28 07:46:03;;;;;;;14.48;2.85;;;;;;;11.83;73.47;101033.56;4955164;28;20669;-45
2022/05/28 07:48:28;;;;;;;13.30;2.80;;;;;;;11.59;73.71;101037.19;4972182;28;20202;-44
2022/05/28 07:50:54;;;;;;;9.05;2.38;;;;;;;11.55;73.81;101041.84;4971974;28;20162;-42
2022/05/28 07:53:19;;;;;;;9.07;2.00;;;;;;;11.53;71.60;101054.44;4971562;28;20198;-41
2022/05/28 07:55:45;;;;;;;10.45;2.45;;;;;;;11.51;72.35;101042.88;4973383;28;20614;-42
2022/05/28 07:58:16;;;;;;;11.45;2.20;;;;;;;12.05;72.07;101038.97;4972997;28;20661;-44
2022/05/28 08:00:47;;;;;;;13.13;2.58;;;;;;;11.55;71.96;101053.44;4967363;28;20248;-48
2022/05/28 08:03:14;;;;;;;13.20;2.53;;;;;;;12.16;71.63;101047.47;4949927;28;20207;-44
2022/05/28 08:05:43;;;;;;;10.23;2.58;;;;;;;11.93;72.05;101047.53;4966819;28;20732;-42
2022/05/28 08:08:08;;;;;;;16.60;2.83;;;;;;;12.20;72.37;101055.38;4967794;28;20186;-43
2022/05/28 08:10:34;;;;;;;13.93;3.13;;;;;;;12.13;73.33;101052.97;4969780;28;20521;-43
2022/05/28 08:13:10;;;;;;;14.45;2.92;;;;;;;12.75;72.22;101045.84;4955766;28;20206;-42
2022/05/28 08:15:39;;;;;;;13.93;3.50;;;;;;;13.39;71.03;101046.59;4972477;28;20257;-41
2022/05/28 08:18:06;;;;;;;16.85;2.65;;;;;;;12.99;71.06;101059.16;4970268;28;20178;-46
2022/05/28 08:23:18;;;;;;;12.95;2.33;;;;;;;11.97;74.05;101067.06;4972325;28;20277;-43
2022/05/28 08:25:45;;;;;;;9.88;2.25;;;;;;;11.79;75.12;101056.09;4972695;28;20229;-43
2022/05/28 08:28:13;;;;;;;17.02;3.55;;;;;;;11.55;75.46;101091.00;4971408;28;20648;-45
2022/05/28 08:30:39;;;;;;;14.73;3.10;;;;;;;11.28;75.35;101084.88;4957587;28;20190;-43
2022/05/28 08:33:08;;;;;;;12.93;3.22;;;;;;;11.36;75.87;101079.22;4951541;28;20205;-42
2022/05/28 08:35:35;;;;;;;22.88;3.17;;;;;;;11.44;75.71;101078.94;4948398;29;20171;-44
2022/05/28 08:38:09;;;;;;;18.50;3.22;;;;;;;12.14;74.38;101086.06;4956046;28;20525;-45
2022/05/28 08:40:46;;;;;;;14.65;3.15;;;;;;;12.65;72.81;101073.19;4969783;28;20288;-46
2022/05/28 08:43:14;;;;;;;15.38;3.15;;;;;;;12.69;71.40;101069.44;4971640;28;20301;-44
2022/05/28 08:45:40;;;;;;;14.30;2.75;;;;;;;12.21;72.75;101074.13;4970689;28;20225;-45
2022/05/28 08:48:06;;;;;;;14.35;3.53;;;;;;;12.12;73.21;101077.19;4970094;28;20166;-42
2022/05/28 08:50:40;;;;;;;13.20;3.88;;;;;;;11.87;74.74;101094.25;4970397;28;20629;-43
2022/05/28 08:53:13;;;;;;;13.10;3.00;;;;;;;11.74;75.44;101085.81;4970116;28;20315;-41
2022/05/28 08:55:47;;;;;;;14.63;3.15;;;;;;;11.68;76.33;101093.22;4967494;28;20652;-44
2022/05/28 08:58:16;;;;;;;12.35;2.60;;;;;;;11.79;75.91;101101.75;4969888;28;20225;-42
2022/05/28 09:00:50;;;;;;;14.50;3.13;;;;;;;11.68;76.02;101098.59;4958447;28;20201;-42
2022/05/28 09:03:18;;;;;;;14.20;2.80;;;;;;;11.87;75.18;101078.16;4950748;29;20297;-42
2022/05/28 09:06:03;;;;;;;13.02;2.95;;;;;;;11.96;75.10;101103.81;4950594;29;20712;-42
2022/05/28 09:09:01;;;;;;;12.70;2.80;;;;;;;11.73;75.95;101102.84;4973757;23;20229;-46
2022/05/28 09:11:37;;;;;;;19.15;3.05;;;;;;;11.69;76.06;101097.66;4946493;28;20301;-48
2022/05/28 09:14:33;;;;;;;14.82;2.53;;;;;;;11.74;76.48;101099.25;4931161;29;20235;-45
2022/05/28 09:17:04;;;;;;;12.98;3.08;;;;;;;11.91;75.48;101103.94;4931638;29;20187;-46
2022/05/28 09:19:42;;;;;;;11.82;2.63;;;;;;;11.94;74.53;101098.47;4933016;29;20191;-44
2022/05/28 09:22:08;;;;;;;13.80;2.90;;;;;;;12.07;74.70;101098.88;4933293;29;20207;-44
2022/05/28 09:24:34;;;;;;;13.73;2.70;;;;;;;12.25;74.22;101101.75;4932695;29;20540;-44
2022/05/28 09:27:05;;;;;;;14.55;2.92;;;;;;;12.01;74.91;101117.91;4933172;29;20248;-46
2022/05/28 09:29:36;;;;;;;14.45;2.67;;;;;;;12.03;73.89;101117.84;4932992;29;20180;-45
2022/05/28 09:32:23;;;;;;;9.07;2.22;;;;;;;11.80;73.78;101092.72;4933047;29;20578;-45
2022/05/28 09:35:14;;;;;;;12.93;2.85;;;;;;;11.72;75.68;101110.97;4932953;29;20691;-47
2022/05/28 09:37:56;;;;;;;11.93;2.05;;;;;;;11.85;75.75;101122.09;4963783;28;20180;-50
2022/05/28 09:40:49;;;;;;;13.07;2.83;;;;;;;11.79;74.28;101114.28;4933081;29;20187;-51
2022/05/28 09:44:02;;;;;;;12.32;3.13;;;;;;;12.00;74.61;101107.22;4932295;29;20879;-46
2022/05/28 09:46:37;;;;;;;10.50;2.83;;;;;;;12.63;73.01;101086.69;4913741;29;20216;-49
2022/05/28 09:49:18;;;;;;;12.85;2.50;;;;;;;12.77;71.55;101110.31;4932469;29;20167;-45
2022/05/28 09:51:59;;;;;;;15.73;2.75;;;;;;;12.77;71.54;101092.38;4932481;29;20167;-45
2022/05/28 09:54:33;;;;;;;19.25;3.42;;;;;;;12.67;72.87;101103.59;4931332;29;20185;-45
2022/05/28 09:57:41;;;;;;;11.40;2.90;;;;;;;12.78;72.38;101104.00;4932775;29;20255;-49
2022/05/28 10:00:12;;;;;;;13.45;3.08;;;;;;;13.10;71.44;101105.28;4922138;29;20246;-46
2022/05/28 10:05:54;;;;;;;15.30;2.35;;;;;;;12.89;71.51;101100.84;4931187;29;20215;-48
2022/05/28 10:08:20;;;;;;;10.43;2.58;;;;;;;13.41;70.32;101105.75;4963134;28;20764;-47
2022/05/28 10:10:59;;;;;;;10.68;2.50;;;;;;;12.85;70.81;101110.84;4935203;29;20582;-46
2022/05/28 10:13:25;;;;;;;10.07;2.70;;;;;;;12.94;72.86;101114.94;4935883;29;20285;-44
2022/05/28 10:15:54;;;;;;;10.25;2.47;;;;;;;12.72;72.51;101115.00;4936591;29;20329;-47
2022/05/28 10:18:25;;;;;;;11.80;3.17;;;;;;;12.11;73.87;101129.16;4936305;29;20167;-48
2022/05/28 10:21:25;;;;;;;10.73;2.67;;;;;;;12.07;75.46;101131.09;4936337;29;20258;-44
2022/05/28 10:23:54;;;;;;;12.75;2.47;;;;;;;12.10;74.96;101127.41;4929183;29;20223;-44
2022/05/28 10:26:25;;;;;;;14.55;2.83;;;;;;;12.10;75.66;101136.34;4935880;29;20199;-47
2022/05/28 10:28:53;;;;;;;11.02;2.00;;;;;;;12.15;74.74;101126.28;4936528;29;20226;-46
2022/05/28 10:31:25;;;;;;;11.38;2.45;;;;;;;12.52;73.87;101129.28;4935989;29;20186;-42
2022/05/28 10:33:51;;;;;;;8.65;2.30;;;;;;;12.87;72.63;101117.03;4935928;29;20227;-42
2022/05/28 10:36:22;;;;;;;11.93;2.75;;;;;;;12.87;72.30;101114.34;4936246;29;20584;-43
2022/05/28 10:38:47;;;;;;;13.45;2.95;;;;;;;12.82;72.42;101110.13;4936083;29;20175;-44
2022/05/28 10:41:29;;;;;;;11.25;2.58;;;;;;;12.84;72.51;101122.56;4936151;29;20172;-45
2022/05/28 10:43:54;;;;;;;13.05;2.85;;;;;;;13.10;72.66;101115.19;4935314;29;20297;-48
2022/05/28 10:46:34;;;;;;;12.40;2.40;;;;;;;13.49;71.69;101119.72;4934460;29;20659;-42
2022/05/28 10:49:33;;;;;;;10.57;2.33;;;;;;;13.50;70.16;101124.16;4935749;29;20197;-45
2022/05/28 10:52:17;;;;;;;13.93;2.60;;;;;;;13.12;71.27;101124.91;4935973;29;20207;-45
2022/05/28 10:54:50;;;;;;;13.60;2.92;;;;;;;12.88;72.62;101124.19;4935555;29;20178;-46
2022/05/28 10:57:40;;;;;;;15.45;2.83;;;;;;;12.81;71.67;101129.88;4935716;29;20164;-44
2022/05/28 11:00:29;;;;;;;15.38;2.90;;;;;;;13.22;72.28;101125.38;4935958;29;20311;-44
2022/05/28 11:03:33;;;;;;;14.63;2.60;;;;;;;13.30;70.98;101136.72;4935566;29;20209;-49
2022/05/28 11:06:17;;;;;;;13.63;2.45;;;;;;;13.08;72.53;101128.69;4935615;29;20810;-43
2022/05/28 11:09:08;;;;;;;16.50;2.92;;;;;;;13.09;73.68;101134.94;4935375;29;20219;-43
2022/05/28 11:11:53;;;;;;;11.93;3.13;;;;;;;13.11;71.91;101128.53;4935731;29;20250;-45
2022/05/28 11:14:53;;;;;;;14.55;2.67;;;;;;;13.06;71.70;101125.19;4954275;29;20206;-47
2022/05/28 11:17:49;;;;;;;11.98;2.90;;;;;;;12.93;72.16;101119.47;4954728;29;20250;-45
2022/05/28 11:20:25;;;;;;;15.18;3.13;;;;;;;13.41;71.84;101125.47;4985492;28;20295;-43
2022/05/28 11:22:53;;;;;;;13.55;3.15;;;;;;;13.36;72.55;101127.50;4954404;29;20316;-44
2022/05/28 11:25:43;;;;;;;11.98;2.80;;;;;;;12.63;74.21;101131.53;4953679;29;20182;-46
2022/05/28 11:28:09;;;;;;;12.00;2.50;;;;;;;12.39;75.42;101153.09;4954378;29;20661;-48
2022/05/28 11:30:47;;;;;;;14.18;2.75;;;;;;;12.27;75.93;101149.09;4954421;28;20175;-48
2022/05/28 11:33:27;;;;;;;12.85;3.08;;;;;;;12.22;76.16;101160.97;4953769;29;20202;-50
2022/05/28 11:36:17;;;;;;;19.90;3.50;;;;;;;11.87;77.59;101163.16;4954235;29;20218;-52
2022/05/28 11:38:51;;;;;;;12.10;3.15;;;;;;;11.92;79.11;101166.63;4954248;29;20720;-49
2022/05/28 11:41:24;;;;;;;16.42;3.38;;;;;;;11.71;79.81;101171.81;4954070;29;20178;-49